sensor_id;sensor_type;location;lat;lon;timestamp;pressure;altitude;pressure_sealevel;temperature;humidity
9077;BME280;4574;51.072;17.174;2022-12-07T00:01:46;99725.50;;;3.33;100.00
9077;BME280;4574;51.072;17.174;2022-12-07T00:04:17;99729.31;;;3.29;100.00
9077;BME280;4574;51.072;17.174;2022-12-07T00:06:50;99732.25;;;3.25;100.00
9077;BME280;4574;51.072;17.174;2022-12-07T00:09:19;99726.56;;;3.31;100.00
9077;BME280;4574;51.072;17.174;2022-12-07T00:11:49;99730.75;;;3.33;100.00
9077;BME280;4574;51.072;17.174;2022-12-07T00:14:20;99731.78;;;3.31;100.00
9077;BME280;4574;51.072;17.174;2022-12-07T00:16:50;99731.78;;;3.31;100.00
9077;BME280;4574;51.072;17.174;2022-12-07T00:19:19;99727.28;;;3.33;100.00
9077;BME280;4574;51.072;17.174;2022-12-07T00:21:48;99723.16;;;3.41;100.00
9077;BME280;4574;51.072;17.174;2022-12-07T00:24:16;99730.06;;;3.42;100.00
9077;BME280;4574;51.072;17.174;2022-12-07T00:26:44;99728.06;;;3.46;100.00
9077;BME280;4574;51.072;17.174;2022-12-07T00:29:15;99724.22;;;3.39;100.00
9077;BME280;4574;51.072;17.174;2022-12-07T00:31:46;99718.97;;;3.39;100.00
9077;BME280;4574;51.072;17.174;2022-12-07T00:34:15;99716.34;;;3.39;100.00
9077;BME280;4574;51.072;17.174;2022-12-07T00:36:45;99708.50;;;3.39;100.00
9077;BME280;4574;51.072;17.174;2022-12-07T00:39:13;99712.31;;;3.35;100.00
9077;BME280;4574;51.072;17.174;2022-12-07T00:41:42;99706.34;;;3.33;100.00
9077;BME280;4574;51.072;17.174;2022-12-07T00:44:11;99704.19;;;3.27;100.00
9077;BME280;4574;51.072;17.174;2022-12-07T00:46:39;99704.78;;;3.19;100.00
9077;BME280;4574;51.072;17.174;2022-12-07T00:49:09;99702.88;;;3.21;100.00
9077;BME280;4574;51.072;17.174;2022-12-07T00:51:37;99703.38;;;3.26;100.00
9077;BME280;4574;51.072;17.174;2022-12-07T00:54:06;99701.22;;;3.20;100.00
9077;BME280;4574;51.072;17.174;2022-12-07T00:56:34;99691.03;;;3.05;100.00
9077;BME280;4574;51.072;17.174;2022-12-07T00:59:03;99710.09;;;3.18;100.00
9077;BME280;4574;51.072;17.174;2022-12-07T01:01:33;99714.84;;;3.13;100.00
9077;BME280;4574;51.072;17.174;2022-12-07T01:04:03;99713.66;;;3.17;100.00
9077;BME280;4574;51.072;17.174;2022-12-07T01:06:33;99703.78;;;3.09;100.00
9077;BME280;4574;51.072;17.174;2022-12-07T01:09:02;99711.91;;;3.17;100.00
9077;BME280;4574;51.072;17.174;2022-12-07T01:11:31;99713.91;;;3.14;100.00
9077;BME280;4574;51.072;17.174;2022-12-07T01:14:00;99713.06;;;3.13;100.00
9077;BME280;4574;51.072;17.174;2022-12-07T01:16:30;99707.72;;;3.15;100.00
9077;BME280;4574;51.072;17.174;2022-12-07T01:19:00;99709.63;;;3.13;100.00
9077;BME280;4574;51.072;17.174;2022-12-07T01:21:34;99706.03;;;3.14;100.00
9077;BME280;4574;51.072;17.174;2022-12-07T01:24:06;99708.88;;;3.11;100.00
9077;BME280;4574;51.072;17.174;2022-12-07T01:26:35;99701.75;;;3.13;100.00
9077;BME280;4574;51.072;17.174;2022-12-07T01:29:03;99697.72;;;3.09;100.00
9077;BME280;4574;51.072;17.174;2022-12-07T01:31:32;99702.50;;;3.15;100.00
9077;BME280;4574;51.072;17.174;2022-12-07T01:34:00;99705.34;;;3.12;100.00
9077;BME280;4574;51.072;17.174;2022-12-07T01:36:30;99701.75;;;3.13;100.00
9077;BME280;4574;51.072;17.174;2022-12-07T01:39:03;99707.94;;;3.12;100.00
9077;BME280;4574;51.072;17.174;2022-12-07T01:41:34;99707.22;;;3.10;100.00
9077;BME280;4574;51.072;17.174;2022-12-07T01:44:15;99712.00;;;3.16;100.00
9077;BME280;4574;51.072;17.174;2022-12-07T01:46:45;99707.50;;;3.18;100.00
9077;BME280;4574;51.072;17.174;2022-12-07T01:49:24;99701.53;;;3.16;100.00
9077;BME280;4574;51.072;17.174;2022-12-07T01:51:58;99699.59;;;3.07;100.00
9077;BME280;4574;51.072;17.174;2022-12-07T01:54:30;99707.56;;;3.05;100.00
9077;BME280;4574;51.072;17.174;2022-12-07T01:56:59;99683.06;;;2.95;100.00
9077;BME280;4574;51.072;17.174;2022-12-07T01:59:28;99700.56;;;3.06;100.00
9077;BME280;4574;51.072;17.174;2022-12-07T02:01:57;99708.41;;;3.06;100.00
9077;BME280;4574;51.072;17.174;2022-12-07T02:04:26;99709.34;;;3.05;100.00
9077;BME280;4574;51.072;17.174;2022-12-07T02:06:54;99718.13;;;3.04;100.00
9077;BME280;4574;51.072;17.174;2022-12-07T02:09:23;99711.00;;;3.06;100.00
9077;BME280;4574;51.072;17.174;2022-12-07T02:11:54;99713.63;;;3.06;100.00
9077;BME280;4574;51.072;17.174;2022-12-07T02:14:23;99711.84;;;3.06;100.00
9077;BME280;4574;51.072;17.174;2022-12-07T02:17:02;99714.34;;;3.08;100.00
9077;BME280;4574;51.072;17.174;2022-12-07T02:20:00;99704.97;;;3.05;100.00
9077;BME280;4574;51.072;17.174;2022-12-07T02:22:57;99718.03;;;3.05;100.00
9077;BME280;4574;51.072;17.174;2022-12-07T02:25:38;99698.88;;;3.05;100.00
9077;BME280;4574;51.072;17.174;2022-12-07T02:28:20;99699.50;;;3.08;100.00
9077;BME280;4574;51.072;17.174;2022-12-07T02:30:56;99709.56;;;3.02;100.00
9077;BME280;4574;51.072;17.174;2022-12-07T02:33:29;99707.06;;;3.00;100.00
9077;BME280;4574;51.072;17.174;2022-12-07T02:36:05;99712.19;;;3.02;100.00
9077;BME280;4574;51.072;17.174;2022-12-07T02:38:39;99706.72;;;3.05;100.00
9077;BME280;4574;51.072;17.174;2022-12-07T02:41:15;99699.50;;;3.08;100.00
9077;BME280;4574;51.072;17.174;2022-12-07T02:43:48;99701.03;;;3.11;100.00
9077;BME280;4574;51.072;17.174;2022-12-07T02:46:23;99701.19;;;3.09;100.00
9077;BME280;4574;51.072;17.174;2022-12-07T02:48:54;99700.31;;;3.09;100.00
9077;BME280;4574;51.072;17.174;2022-12-07T02:51:29;99706.22;;;3.00;100.00
9077;BME280;4574;51.072;17.174;2022-12-07T02:53:58;99695.41;;;2.93;100.00
9077;BME280;4574;51.072;17.174;2022-12-07T02:56:39;99703.53;;;3.01;100.00
9077;BME280;4574;51.072;17.174;2022-12-07T02:59:21;99700.00;;;2.90;100.00
9077;BME280;4574;51.072;17.174;2022-12-07T03:02:04;99690.28;;;2.92;100.00
9077;BME280;4574;51.072;17.174;2022-12-07T03:04:43;99699.78;;;2.93;100.00
9077;BME280;4574;51.072;17.174;2022-12-07T03:07:20;99689.78;;;2.87;100.00
9077;BME280;4574;51.072;17.174;2022-12-07T03:10:00;99705.91;;;2.81;100.00
9077;BME280;4574;51.072;17.174;2022-12-07T03:12:37;99698.47;;;2.87;100.00
9077;BME280;4574;51.072;17.174;2022-12-07T03:15:15;99697.97;;;2.82;100.00
9077;BME280;4574;51.072;17.174;2022-12-07T03:17:49;99704.13;;;2.81;100.00
9077;BME280;4574;51.072;17.174;2022-12-07T03:20:21;99700.44;;;2.84;100.00
9077;BME280;4574;51.072;17.174;2022-12-07T03:22:52;99701.19;;;2.86;100.00
9077;BME280;4574;51.072;17.174;2022-12-07T03:25:22;99675.72;;;2.77;100.00
9077;BME280;4574;51.072;17.174;2022-12-07T03:27:54;99697.28;;;2.91;100.00
9077;BME280;4574;51.072;17.174;2022-12-07T03:30:28;99689.06;;;2.85;100.00
9077;BME280;4574;51.072;17.174;2022-12-07T03:33:01;99689.28;;;2.82;100.00
9077;BME280;4574;51.072;17.174;2022-12-07T03:35:34;99690.41;;;2.90;100.00
9077;BME280;4574;51.072;17.174;2022-12-07T03:38:11;99690.00;;;2.84;100.00
9077;BME280;4574;51.072;17.174;2022-12-07T03:40:46;99680.25;;;2.86;100.00
9077;BME280;4574;51.072;17.174;2022-12-07T03:43:18;99673.06;;;2.89;100.00
9077;BME280;4574;51.072;17.174;2022-12-07T03:45:55;99683.06;;;2.95;100.00
9077;BME280;4574;51.072;17.174;2022-12-07T03:48:33;99681.00;;;2.88;100.00
9077;BME280;4574;51.072;17.174;2022-12-07T03:51:10;99661.97;;;2.86;100.00
9077;BME280;4574;51.072;17.174;2022-12-07T03:53:46;99657.47;;;2.88;100.00
9077;BME280;4574;51.072;17.174;2022-12-07T03:56:17;99679.31;;;2.87;100.00
9077;BME280;4574;51.072;17.174;2022-12-07T03:58:47;99665.53;;;2.85;100.00
9077;BME280;4574;51.072;17.174;2022-12-07T04:01:17;99664.09;;;2.81;100.00
9077;BME280;4574;51.072;17.174;2022-12-07T04:03:47;99669.38;;;2.92;100.00
9077;BME280;4574;51.072;17.174;2022-12-07T04:06:16;99664.34;;;2.89;100.00
9077;BME280;4574;51.072;17.174;2022-12-07T04:08:44;99670.31;;;2.91;100.00
9077;BME280;4574;51.072;17.174;2022-12-07T04:11:13;99680.03;;;2.89;100.00
9077;BME280;4574;51.072;17.174;2022-12-07T04:13:41;99673.06;;;2.89;100.00
9077;BME280;4574;51.072;17.174;2022-12-07T04:16:27;99676.38;;;2.91;100.00
9077;BME280;4574;51.072;17.174;2022-12-07T04:18:57;99677.81;;;2.95;100.00
9077;BME280;4574;51.072;17.174;2022-12-07T04:21:26;99656.03;;;2.84;100.00
9077;BME280;4574;51.072;17.174;2022-12-07T04:23:55;99679.38;;;2.98;100.00
9077;BME280;4574;51.072;17.174;2022-12-07T04:26:23;99661.25;;;2.84;100.00
9077;BME280;4574;51.072;17.174;2022-12-07T04:28:51;99675.75;;;2.88;100.00
9077;BME280;4574;51.072;17.174;2022-12-07T04:31:20;99667.81;;;2.89;100.00
9077;BME280;4574;51.072;17.174;2022-12-07T04:33:48;99662.81;;;2.86;100.00
9077;BME280;4574;51.072;17.174;2022-12-07T04:36:18;99678.59;;;2.85;100.00
9077;BME280;4574;51.072;17.174;2022-12-07T04:38:47;99665.66;;;2.83;100.00
9077;BME280;4574;51.072;17.174;2022-12-07T04:41:16;99671.16;;;2.91;100.00
9077;BME280;4574;51.072;17.174;2022-12-07T04:43:44;99666.16;;;2.88;100.00
9077;BME280;4574;51.072;17.174;2022-12-07T04:46:13;99671.84;;;2.82;100.00
9077;BME280;4574;51.072;17.174;2022-12-07T04:48:42;99679.31;;;2.87;100.00
9077;BME280;4574;51.072;17.174;2022-12-07T04:51:10;99669.00;;;2.85;100.00
9077;BME280;4574;51.072;17.174;2022-12-07T04:53:40;99669.72;;;2.87;100.00
9077;BME280;4574;51.072;17.174;2022-12-07T04:56:08;99656.81;;;2.73;100.00
9077;BME280;4574;51.072;17.174;2022-12-07T04:58:37;99655.53;;;2.79;100.00
9077;BME280;4574;51.072;17.174;2022-12-07T05:01:05;99671.09;;;2.80;100.00
9077;BME280;4574;51.072;17.174;2022-12-07T05:03:34;99663.03;;;2.83;100.00
9077;BME280;4574;51.072;17.174;2022-12-07T05:06:04;99666.38;;;2.85;100.00
9077;BME280;4574;51.072;17.174;2022-12-07T05:08:40;99663.63;;;2.87;100.00
9077;BME280;4574;51.072;17.174;2022-12-07T05:11:09;99667.41;;;2.83;100.00
9077;BME280;4574;51.072;17.174;2022-12-07T05:13:58;99653.41;;;2.84;100.00
9077;BME280;4574;51.072;17.174;2022-12-07T05:16:27;99664.81;;;2.83;100.00
9077;BME280;4574;51.072;17.174;2022-12-07T05:18:56;99656.66;;;2.87;100.00
9077;BME280;4574;51.072;17.174;2022-12-07T05:21:24;99662.69;;;2.88;100.00
9077;BME280;4574;51.072;17.174;2022-12-07T05:23:54;99661.75;;;2.89;100.00
9077;BME280;4574;51.072;17.174;2022-12-07T05:26:23;99664.34;;;2.89;100.00
9077;BME280;4574;51.072;17.174;2022-12-07T05:28:52;99659.84;;;2.91;100.00
9077;BME280;4574;51.072;17.174;2022-12-07T05:31:20;99659.75;;;2.92;100.00
9077;BME280;4574;51.072;17.174;2022-12-07T05:33:49;99642.38;;;2.80;100.00
9077;BME280;4574;51.072;17.174;2022-12-07T05:36:18;99655.34;;;2.93;100.00
9077;BME280;4574;51.072;17.174;2022-12-07T05:38:47;99659.41;;;2.97;100.00
9077;BME280;4574;51.072;17.174;2022-12-07T05:41:18;99668.81;;;2.99;100.00
9077;BME280;4574;51.072;17.174;2022-12-07T05:44:05;99648.13;;;2.96;100.00
9077;BME280;4574;51.072;17.174;2022-12-07T05:46:34;99669.19;;;3.06;100.00
9077;BME280;4574;51.072;17.174;2022-12-07T05:49:03;99676.31;;;3.04;100.00
9077;BME280;4574;51.072;17.174;2022-12-07T05:51:31;99673.91;;;3.01;100.00
9077;BME280;4574;51.072;17.174;2022-12-07T05:54:00;99671.53;;;2.98;100.00
9077;BME280;4574;51.072;17.174;2022-12-07T05:56:29;99674.84;;;3.00;100.00
9077;BME280;4574;51.072;17.174;2022-12-07T05:58:58;99673.81;;;3.02;100.00
9077;BME280;4574;51.072;17.174;2022-12-07T06:01:44;99674.41;;;3.06;100.00
9077;BME280;4574;51.072;17.174;2022-12-07T06:04:12;99670.97;;;3.05;100.00
9077;BME280;4574;51.072;17.174;2022-12-07T06:06:41;99669.19;;;3.06;100.00
9077;BME280;4574;51.072;17.174;2022-12-07T06:09:10;99660.63;;;3.04;100.00
9077;BME280;4574;51.072;17.174;2022-12-07T06:11:41;99650.63;;;2.98;100.00
9077;BME280;4574;51.072;17.174;2022-12-07T06:14:26;99665.63;;;3.07;100.00
9077;BME280;4574;51.072;17.174;2022-12-07T06:16:54;99668.69;;;3.01;100.00
9077;BME280;4574;51.072;17.174;2022-12-07T06:19:23;99654.41;;;2.94;100.00
9077;BME280;4574;51.072;17.174;2022-12-07T06:21:52;99662.00;;;2.97;100.00
9077;BME280;4574;51.072;17.174;2022-12-07T06:24:21;99660.03;;;3.00;100.00
9077;BME280;4574;51.072;17.174;2022-12-07T06:26:51;99669.41;;;3.03;100.00
9077;BME280;4574;51.072;17.174;2022-12-07T06:29:19;99664.91;;;3.05;100.00
9077;BME280;4574;51.072;17.174;2022-12-07T06:31:49;99666.91;;;3.01;100.00
9077;BME280;4574;51.072;17.174;2022-12-07T06:34:19;99667.75;;;3.02;100.00
9077;BME280;4574;51.072;17.174;2022-12-07T06:36:50;99666.78;;;3.03;100.00
9077;BME280;4574;51.072;17.174;2022-12-07T06:39:21;99666.69;;;3.04;100.00
9077;BME280;4574;51.072;17.174;2022-12-07T06:41:53;99667.50;;;3.05;100.00
9077;BME280;4574;51.072;17.174;2022-12-07T06:44:22;99676.31;;;3.04;100.00
9077;BME280;4574;51.072;17.174;2022-12-07T06:46:51;99662.50;;;3.02;100.00
9077;BME280;4574;51.072;17.174;2022-12-07T06:49:40;99669.09;;;3.07;100.00
9077;BME280;4574;51.072;17.174;2022-12-07T06:52:09;99670.25;;;3.03;100.00
9077;BME280;4574;51.072;17.174;2022-12-07T06:54:37;99663.22;;;3.04;100.00
9077;BME280;4574;51.072;17.174;2022-12-07T06:57:07;99670.84;;;3.07;100.00
9077;BME280;4574;51.072;17.174;2022-12-07T06:59:35;99662.28;;;3.05;100.00
9077;BME280;4574;51.072;17.174;2022-12-07T07:02:04;99670.84;;;3.07;100.00
9077;BME280;4574;51.072;17.174;2022-12-07T07:04:33;99665.63;;;3.07;100.00
9077;BME280;4574;51.072;17.174;2022-12-07T07:07:01;99669.81;;;3.09;100.00
9077;BME280;4574;51.072;17.174;2022-12-07T07:09:29;99673.22;;;3.10;100.00
9077;BME280;4574;51.072;17.174;2022-12-07T07:11:58;99665.63;;;3.07;100.00
9077;BME280;4574;51.072;17.174;2022-12-07T07:14:28;99659.34;;;3.09;100.00
9077;BME280;4574;51.072;17.174;2022-12-07T07:16:56;99659.66;;;3.05;100.00
9077;BME280;4574;51.072;17.174;2022-12-07T07:19:25;99650.16;;;3.04;100.00
9077;BME280;4574;51.072;17.174;2022-12-07T07:21:53;99660.63;;;3.04;100.00
9077;BME280;4574;51.072;17.174;2022-12-07T07:24:22;99668.22;;;3.07;100.00
9077;BME280;4574;51.072;17.174;2022-12-07T07:26:50;99659.66;;;3.05;100.00
9077;BME280;4574;51.072;17.174;2022-12-07T07:29:18;99663.13;;;3.05;100.00
9077;BME280;4574;51.072;17.174;2022-12-07T07:31:49;99667.50;;;3.05;100.00
9077;BME280;4574;51.072;17.174;2022-12-07T07:34:17;99655.38;;;3.04;100.00
9077;BME280;4574;51.072;17.174;2022-12-07T07:36:46;99662.06;;;3.08;100.00
9077;BME280;4574;51.072;17.174;2022-12-07T07:39:14;99664.81;;;3.06;100.00
9077;BME280;4574;51.072;17.174;2022-12-07T07:41:43;99662.06;;;3.08;100.00
9077;BME280;4574;51.072;17.174;2022-12-07T07:44:12;99659.13;;;3.12;100.00
9077;BME280;4574;51.072;17.174;2022-12-07T07:46:40;99663.28;;;3.15;100.00
9077;BME280;4574;51.072;17.174;2022-12-07T07:49:10;99654.59;;;3.14;100.00
9077;BME280;4574;51.072;17.174;2022-12-07T07:51:39;99661.38;;;3.17;100.00
9077;BME280;4574;51.072;17.174;2022-12-07T07:54:07;99648.31;;;3.17;100.00
9077;BME280;4574;51.072;17.174;2022-12-07T07:56:35;99641.75;;;3.11;100.00
9077;BME280;4574;51.072;17.174;2022-12-07T07:59:04;99649.75;;;3.21;100.00
9077;BME280;4574;51.072;17.174;2022-12-07T08:01:32;99656.75;;;3.20;100.00
9077;BME280;4574;51.072;17.174;2022-12-07T08:04:01;99662.94;;;3.19;100.00
9077;BME280;4574;51.072;17.174;2022-12-07T08:06:31;99660.31;;;3.19;100.00
9077;BME280;4574;51.072;17.174;2022-12-07T08:09:00;99654.72;;;3.13;100.00
9077;BME280;4574;51.072;17.174;2022-12-07T08:11:29;99672.81;;;3.27;100.00
9077;BME280;4574;51.072;17.174;2022-12-07T08:13:58;99668.19;;;3.30;100.00
9077;BME280;4574;51.072;17.174;2022-12-07T08:16:26;99678.75;;;3.29;100.00
9077;BME280;4574;51.072;17.174;2022-12-07T08:18:55;99674.03;;;3.34;100.00
9077;BME280;4574;51.072;17.174;2022-12-07T08:21:24;99677.47;;;3.34;100.00
9077;BME280;4574;51.072;17.174;2022-12-07T08:23:54;99672.97;;;3.36;100.00
9077;BME280;4574;51.072;17.174;2022-12-07T08:26:22;99673.69;;;3.38;100.00
9077;BME280;4574;51.072;17.174;2022-12-07T08:28:52;99671.69;;;3.42;100.00
9077;BME280;4574;51.072;17.174;2022-12-07T08:31:20;99676.78;;;3.43;100.00
9077;BME280;4574;51.072;17.174;2022-12-07T08:33:49;99670.84;;;3.41;100.00
9077;BME280;4574;51.072;17.174;2022-12-07T08:36:17;99670.84;;;3.41;100.00
9077;BME280;4574;51.072;17.174;2022-12-07T08:38:46;99667.28;;;3.42;100.00
9077;BME280;4574;51.072;17.174;2022-12-07T08:41:36;99672.41;;;3.44;100.00
9077;BME280;4574;51.072;17.174;2022-12-07T08:44:05;99671.47;;;3.45;100.00
9077;BME280;4574;51.072;17.174;2022-12-07T08:46:35;99661.00;;;3.45;100.00
9077;BME280;4574;51.072;17.174;2022-12-07T08:49:09;99657.78;;;3.52;100.00
9077;BME280;4574;51.072;17.174;2022-12-07T08:51:40;99663.63;;;3.56;100.00
9077;BME280;4574;51.072;17.174;2022-12-07T08:54:12;99659.84;;;3.60;100.00
9077;BME280;4574;51.072;17.174;2022-12-07T08:56:43;99654.13;;;3.66;100.00
9077;BME280;4574;51.072;17.174;2022-12-07T08:59:15;99647.00;;;3.68;100.00
9077;BME280;4574;51.072;17.174;2022-12-07T09:01:46;99649.25;;;3.72;100.00
9077;BME280;4574;51.072;17.174;2022-12-07T09:04:15;99649.88;;;3.76;100.00
9077;BME280;4574;51.072;17.174;2022-12-07T09:06:43;99651.41;;;3.78;100.00
9077;BME280;4574;51.072;17.174;2022-12-07T09:09:13;99647.47;;;3.84;100.00
9077;BME280;4574;51.072;17.174;2022-12-07T09:11:43;99638.69;;;3.85;100.00
9077;BME280;4574;51.072;17.174;2022-12-07T09:14:12;99649.63;;;3.90;100.00
9077;BME280;4574;51.072;17.174;2022-12-07T09:16:41;99640.69;;;3.92;100.00
9077;BME280;4574;51.072;17.174;2022-12-07T09:19:10;99643.78;;;3.97;100.00
9077;BME280;4574;51.072;17.174;2022-12-07T09:21:39;99636.63;;;3.99;100.00
9077;BME280;4574;51.072;17.174;2022-12-07T09:24:07;99629.25;;;4.04;100.00
9077;BME280;4574;51.072;17.174;2022-12-07T09:26:36;99622.00;;;4.07;100.00
9077;BME280;4574;51.072;17.174;2022-12-07T09:29:07;99622.34;;;4.14;100.00
9077;BME280;4574;51.072;17.174;2022-12-07T09:31:36;99615.34;;;4.14;100.00
9077;BME280;4574;51.072;17.174;2022-12-07T09:34:05;99619.84;;;4.12;100.00
9077;BME280;4574;51.072;17.174;2022-12-07T09:36:34;99609.94;;;4.16;100.00
9077;BME280;4574;51.072;17.174;2022-12-07T09:39:03;99600.31;;;4.16;100.00
9077;BME280;4574;51.072;17.174;2022-12-07T09:41:32;99607.69;;;4.22;100.00
9077;BME280;4574;51.072;17.174;2022-12-07T09:44:05;99605.53;;;4.27;100.00
9077;BME280;4574;51.072;17.174;2022-12-07T09:46:38;99593.91;;;4.20;100.00
9077;BME280;4574;51.072;17.174;2022-12-07T09:49:12;99603.16;;;4.35;100.00
9077;BME280;4574;51.072;17.174;2022-12-07T09:51:43;99600.28;;;4.38;100.00
9077;BME280;4574;51.072;17.174;2022-12-07T09:54:13;99591.09;;;4.44;100.00
9077;BME280;4574;51.072;17.174;2022-12-07T09:56:42;99586.69;;;4.44;100.00
9077;BME280;4574;51.072;17.174;2022-12-07T09:59:16;99593.34;;;4.48;100.00
9077;BME280;4574;51.072;17.174;2022-12-07T10:01:48;99594.28;;;4.47;100.00
9077;BME280;4574;51.072;17.174;2022-12-07T10:04:20;99589.06;;;4.47;100.00
9077;BME280;4574;51.072;17.174;2022-12-07T10:06:49;99592.88;;;4.43;100.00
9077;BME280;4574;51.072;17.174;2022-12-07T10:09:19;99584.28;;;4.52;100.00
9077;BME280;4574;51.072;17.174;2022-12-07T10:12:05;99571.88;;;4.54;100.00
9077;BME280;4574;51.072;17.174;2022-12-07T10:14:38;99579.50;;;4.57;100.00
9077;BME280;4574;51.072;17.174;2022-12-07T10:17:37;99567.00;;;4.61;100.00
9077;BME280;4574;51.072;17.174;2022-12-07T10:20:17;99562.31;;;4.64;100.00
9077;BME280;4574;51.072;17.174;2022-12-07T10:23:03;99556.00;;;4.67;100.00
9077;BME280;4574;51.072;17.174;2022-12-07T10:25:33;99565.13;;;4.72;100.00
9077;BME280;4574;51.072;17.174;2022-12-07T10:28:14;99544.16;;;4.72;100.00
9077;BME280;4574;51.072;17.174;2022-12-07T10:30:48;99543.78;;;4.77;100.00
9077;BME280;4574;51.072;17.174;2022-12-07T10:33:36;99551.41;;;4.80;100.00
9077;BME280;4574;51.072;17.174;2022-12-07T10:36:20;99546.53;;;4.75;100.00
9077;BME280;4574;51.072;17.174;2022-12-07T10:38:51;99532.25;;;4.68;100.00
9077;BME280;4574;51.072;17.174;2022-12-07T10:41:20;99545.31;;;4.79;100.00
9077;BME280;4574;51.072;17.174;2022-12-07T10:43:51;99545.31;;;4.79;100.00
9077;BME280;4574;51.072;17.174;2022-12-07T10:46:38;99554.13;;;4.78;100.00
9077;BME280;4574;51.072;17.174;2022-12-07T10:52:21;99551.06;;;4.73;100.00
9077;BME280;4574;51.072;17.174;2022-12-07T10:55:05;99532.00;;;4.71;100.00
9077;BME280;4574;51.072;17.174;2022-12-07T10:57:47;99538.09;;;4.72;100.00
9077;BME280;4574;51.072;17.174;2022-12-07T11:00:23;99547.75;;;4.71;100.00
9077;BME280;4574;51.072;17.174;2022-12-07T11:03:12;99536.28;;;4.72;100.00
9077;BME280;4574;51.072;17.174;2022-12-07T11:05:52;99531.75;;;4.74;100.00
9077;BME280;4574;51.072;17.174;2022-12-07T11:08:38;99527.47;;;4.73;100.00
9077;BME280;4574;51.072;17.174;2022-12-07T11:11:13;99534.28;;;4.76;100.00
9077;BME280;4574;51.072;17.174;2022-12-07T11:13:47;99533.69;;;4.72;100.00
9077;BME280;4574;51.072;17.174;2022-12-07T11:16:23;99543.25;;;4.62;100.00
9077;BME280;4574;51.072;17.174;2022-12-07T11:22:07;99539.97;;;4.49;100.00
9077;BME280;4574;51.072;17.174;2022-12-07T11:24:42;99544.06;;;4.42;100.00
9077;BME280;4574;51.072;17.174;2022-12-07T11:27:24;99527.88;;;4.37;100.00
9077;BME280;4574;51.072;17.174;2022-12-07T11:30:16;99527.53;;;4.42;100.00
9077;BME280;4574;51.072;17.174;2022-12-07T11:33:04;99525.34;;;4.47;100.00
9077;BME280;4574;51.072;17.174;2022-12-07T11:35:46;99519.97;;;4.48;100.00
9077;BME280;4574;51.072;17.174;2022-12-07T11:38:24;99537.34;;;4.49;100.00
9077;BME280;4574;51.072;17.174;2022-12-07T11:40:59;99517.56;;;4.56;100.00
9077;BME280;4574;51.072;17.174;2022-12-07T11:43:53;99514.94;;;4.56;100.00
9077;BME280;4574;51.072;17.174;2022-12-07T11:46:26;99518.72;;;4.63;100.00
9077;BME280;4574;51.072;17.174;2022-12-07T11:49:02;99515.38;;;4.61;100.00
9077;BME280;4574;51.072;17.174;2022-12-07T11:51:34;99517.28;;;4.59;100.00
9077;BME280;4574;51.072;17.174;2022-12-07T11:54:13;99517.91;;;4.63;100.00
9077;BME280;4574;51.072;17.174;2022-12-07T11:56:43;99520.38;;;4.64;100.00
9077;BME280;4574;51.072;17.174;2022-12-07T11:59:18;99513.22;;;4.66;100.00
9077;BME280;4574;51.072;17.174;2022-12-07T12:01:53;99515.38;;;4.61;100.00
9077;BME280;4574;51.072;17.174;2022-12-07T12:04:35;99513.47;;;4.63;100.00
9077;BME280;4574;51.072;17.174;2022-12-07T12:07:06;99511.00;;;4.62;100.00
9077;BME280;4574;51.072;17.174;2022-12-07T12:10:00;99514.69;;;4.59;100.00
9077;BME280;4574;51.072;17.174;2022-12-07T12:12:46;99521.97;;;4.56;100.00
9077;BME280;4574;51.072;17.174;2022-12-07T12:15:58;99519.72;;;4.51;100.00
9077;BME280;4574;51.072;17.174;2022-12-07T12:18:42;99511.91;;;4.40;100.00
9077;BME280;4574;51.072;17.174;2022-12-07T12:21:16;99530.75;;;4.34;100.00
9077;BME280;4574;51.072;17.174;2022-12-07T12:23:48;99513.25;;;4.35;100.00
9077;BME280;4574;51.072;17.174;2022-12-07T12:26:21;99526.47;;;4.33;100.00
9077;BME280;4574;51.072;17.174;2022-12-07T12:28:53;99498.50;;;4.23;100.00
9077;BME280;4574;51.072;17.174;2022-12-07T12:31:38;99511.44;;;4.35;100.00
9077;BME280;4574;51.072;17.174;2022-12-07T12:34:33;99522.06;;;4.34;100.00
9077;BME280;4574;51.072;17.174;2022-12-07T12:37:39;99502.63;;;4.36;100.00
9077;BME280;4574;51.072;17.174;2022-12-07T12:40:42;99505.84;;;4.40;100.00
9077;BME280;4574;51.072;17.174;2022-12-07T12:43:50;99515.38;;;4.41;100.00
9077;BME280;4574;51.072;17.174;2022-12-07T12:46:45;99497.16;;;4.39;100.00
9077;BME280;4574;51.072;17.174;2022-12-07T12:49:43;99496.78;;;4.44;100.00
9077;BME280;4574;51.072;17.174;2022-12-07T12:55:20;99507.13;;;4.45;100.00
9077;BME280;4574;51.072;17.174;2022-12-07T13:03:57;99504.75;;;4.42;100.00
9077;BME280;4574;51.072;17.174;2022-12-07T13:06:35;99511.66;;;4.43;100.00
9077;BME280;4574;51.072;17.174;2022-12-07T13:09:18;99506.41;;;4.43;100.00
9077;BME280;4574;51.072;17.174;2022-12-07T13:11:48;99508.34;;;4.41;100.00
9077;BME280;4574;51.072;17.174;2022-12-07T13:14:51;99512.25;;;4.47;100.00
9077;BME280;4574;51.072;17.174;2022-12-07T13:17:55;99506.75;;;4.50;100.00
9077;BME280;4574;51.072;17.174;2022-12-07T13:20:49;99514.72;;;4.48;100.00
9077;BME280;4574;51.072;17.174;2022-12-07T13:23:31;99519.72;;;4.51;100.00
9077;BME280;4574;51.072;17.174;2022-12-07T13:26:06;99500.66;;;4.49;100.00
9077;BME280;4574;51.072;17.174;2022-12-07T13:28:45;99504.25;;;4.48;100.00
9077;BME280;4574;51.072;17.174;2022-12-07T13:31:20;99513.91;;;4.48;100.00
9077;BME280;4574;51.072;17.174;2022-12-07T13:33:51;99501.53;;;4.50;100.00
9077;BME280;4574;51.072;17.174;2022-12-07T13:36:24;99514.63;;;4.50;100.00
9077;BME280;4574;51.072;17.174;2022-12-07T13:38:57;99512.81;;;4.50;100.00
9077;BME280;4574;51.072;17.174;2022-12-07T13:41:27;99513.28;;;4.55;100.00
9077;BME280;4574;51.072;17.174;2022-12-07T13:44:01;99521.38;;;4.52;100.00
9077;BME280;4574;51.072;17.174;2022-12-07T13:46:40;99521.38;;;4.52;100.00
9077;BME280;4574;51.072;17.174;2022-12-07T13:49:22;99532.72;;;4.53;100.00
9077;BME280;4574;51.072;17.174;2022-12-07T13:51:53;99523.19;;;4.52;100.00
9077;BME280;4574;51.072;17.174;2022-12-07T13:54:22;99509.94;;;4.53;100.00
9077;BME280;4574;51.072;17.174;2022-12-07T13:56:51;99510.91;;;4.52;100.00
9077;BME280;4574;51.072;17.174;2022-12-07T13:59:23;99510.91;;;4.52;100.00